Time;durP1;ratioP1;P1;durP2;ratioP2;P2;SDS_P1;SDS_P2;PMS_P1;PMS_P2;Temp;Humidity;BMP_temperature;BMP_pressure;BME280_temperature;BME280_humidity;BME280_pressure;Samples;Min_cycle;Max_cycle;Signal;HPM_P1;HPM_P2
2023/09/02 00:00:43;;;;;;;0.20;0.20;;;;;;;16.74;94.61;97610.28;5060002;28;20047;-68
2023/09/02 00:03:11;;;;;;;0.15;0.15;;;;;;;16.75;94.95;97610.06;5061382;28;20406;-67
2023/09/02 00:05:39;;;;;;;0.10;0.10;;;;;;;16.78;95.02;97616.88;5062921;28;20047;-68
2023/09/02 00:08:06;;;;;;;0.10;0.10;;;;;;;16.80;94.81;97615.59;5057461;28;20044;-67
2023/09/02 00:10:35;;;;;;;0.22;0.22;;;;;;;16.81;94.42;97617.25;5067624;28;20048;-67
2023/09/02 00:13:03;;;;;;;0.08;0.08;;;;;;;16.82;94.25;97612.63;5071967;28;20048;-67
2023/09/02 00:15:31;;;;;;;0.17;0.17;;;;;;;16.83;94.46;97616.97;5069729;28;20036;-66
2023/09/02 00:17:59;;;;;;;0.22;0.22;;;;;;;16.84;94.52;97610.53;5066044;28;20041;-68
2023/09/02 00:20:27;;;;;;;0.20;0.20;;;;;;;16.84;94.58;97610.53;5068053;28;20037;-68
2023/09/02 00:22:54;;;;;;;0.15;0.15;;;;;;;16.80;94.82;97610.19;5067166;28;20049;-68
2023/09/02 00:25:24;;;;;;;0.15;0.15;;;;;;;16.78;95.71;97619.56;5054438;28;20032;-68
2023/09/02 00:27:54;;;;;;;0.13;0.13;;;;;;;16.80;95.23;97615.59;5068153;28;20052;-68
2023/09/02 00:30:23;;;;;;;0.15;0.15;;;;;;;16.80;95.86;97625.56;5065837;28;20040;-68
2023/09/02 00:32:50;;;;;;;0.13;0.13;;;;;;;16.76;95.75;97610.88;5055769;28;20048;-68
2023/09/02 00:35:18;;;;;;;0.13;0.13;;;;;;;16.78;95.75;97616.88;5054831;28;20044;-68
2023/09/02 00:37:46;;;;;;;0.03;0.03;;;;;;;16.78;95.86;97615.00;5057642;28;20135;-68
2023/09/02 00:40:16;;;;;;;0.13;0.13;;;;;;;16.76;95.48;97616.28;5059747;28;20098;-68
2023/09/02 00:42:44;;;;;;;0.15;0.15;;;;;;;16.80;95.65;97620.16;5068419;28;20515;-69
2023/09/02 00:45:15;;;;;;;0.13;0.13;;;;;;;16.76;95.21;97624.38;5062725;28;20407;-68
2023/09/02 00:47:43;;;;;;;0.15;0.15;;;;;;;16.77;95.52;97617.91;5069443;28;20048;-69
2023/09/02 00:50:11;;;;;;;0.13;0.13;;;;;;;16.76;95.31;97614.41;5061544;28;20507;-68
2023/09/02 00:52:38;;;;;;;0.08;0.08;;;;;;;16.76;95.54;97616.28;5064663;28;20053;-69
2023/09/02 00:55:06;;;;;;;0.20;0.20;;;;;;;16.73;95.30;97614.03;5069389;28;20510;-68
2023/09/02 00:57:35;;;;;;;0.20;0.20;;;;;;;16.69;95.33;97616.41;5069364;28;20124;-68
2023/09/02 01:00:04;;;;;;;0.10;0.10;;;;;;;16.70;95.24;97622.63;5062842;28;20055;-68
2023/09/02 01:02:34;;;;;;;0.13;0.13;;;;;;;16.68;95.25;97627.41;5069312;28;20044;-68
2023/09/02 01:05:02;;;;;;;0.10;0.10;;;;;;;16.73;95.58;97622.13;5057651;28;20040;-67
2023/09/02 01:07:30;;;;;;;0.10;0.10;;;;;;;16.73;95.26;97622.13;5070041;28;20040;-68
2023/09/02 01:09:58;;;;;;;0.20;0.20;;;;;;;16.69;95.23;97618.28;5070229;28;20075;-67
2023/09/02 01:12:26;;;;;;;0.20;0.20;;;;;;;16.73;95.18;97622.94;5066392;28;20119;-67
2023/09/02 01:14:54;;;;;;;0.13;0.13;;;;;;;16.73;94.88;97622.13;5067057;28;20064;-67
2023/09/02 01:17:21;;;;;;;0.13;0.13;;;;;;;16.76;94.81;97624.38;5063826;28;20033;-68
2023/09/02 01:19:53;;;;;;;0.10;0.10;;;;;;;16.78;94.79;97630.34;5064217;28;20496;-67
2023/09/02 01:22:49;;;;;;;0.13;0.13;;;;;;;16.77;94.09;97631.41;5056818;28;20059;-68
2023/09/02 01:25:29;;;;;;;0.10;0.10;;;;;;;16.77;93.55;97634.91;5059764;28;20452;-68
2023/09/02 01:28:03;;;;;;;0.20;0.20;;;;;;;16.76;92.97;97638.66;5069711;28;20147;-68
2023/09/02 01:30:34;;;;;;;0.20;0.20;;;;;;;16.76;93.24;97630.56;5064949;28;20492;-68
2023/09/02 01:33:03;;;;;;;0.20;0.20;;;;;;;16.75;92.97;97636.19;5056781;28;20063;-67
2023/09/02 01:35:35;;;;;;;0.13;0.13;;;;;;;16.71;92.81;97633.16;5062897;28;20044;-68
2023/09/02 01:38:04;;;;;;;0.03;0.03;;;;;;;16.67;92.55;97639.25;5060854;28;20043;-69
2023/09/02 01:40:33;;;;;;;0.20;0.20;;;;;;;16.63;92.83;97638.88;5060648;28;20037;-68
2023/09/02 01:43:03;;;;;;;0.00;0.00;;;;;;;16.60;92.59;97647.41;5074749;28;20055;-68
2023/09/02 01:45:33;;;;;;;0.13;0.13;;;;;;;16.65;92.44;97652.94;5070528;28;20040;-68
2023/09/02 01:48:01;;;;;;;0.15;0.15;;;;;;;16.64;93.00;97650.47;5066289;28;20421;-69
2023/09/02 01:50:30;;;;;;;0.32;0.32;;;;;;;16.65;92.63;97654.81;5070278;28;20040;-68
2023/09/02 01:52:59;;;;;;;0.13;0.13;;;;;;;16.60;93.28;97652.81;5065829;28;20044;-67
2023/09/02 01:55:27;;;;;;;0.20;0.20;;;;;;;16.58;93.42;97654.06;5062017;28;20120;-68
2023/09/02 01:57:56;;;;;;;0.17;0.17;;;;;;;16.50;94.13;97653.38;5069318;28;20094;-68
2023/09/02 02:00:25;;;;;;;0.13;0.13;;;;;;;16.49;93.88;97657.13;5064661;28;20058;-68
2023/09/02 02:02:54;;;;;;;0.10;0.10;;;;;;;16.55;93.70;97657.22;5070044;28;20048;-68
2023/09/02 02:05:26;;;;;;;0.15;0.15;;;;;;;16.57;93.36;97657.81;5071559;28;20041;-68
2023/09/02 02:07:58;;;;;;;0.20;0.20;;;;;;;16.52;93.38;97661.19;5073049;28;20044;-68
2023/09/02 02:10:27;;;;;;;0.08;0.08;;;;;;;16.55;93.46;97665.31;5060242;28;20094;-68
2023/09/02 02:13:00;;;;;;;0.15;0.15;;;;;;;16.47;93.83;97658.38;5064937;28;20522;-68
2023/09/02 02:15:30;;;;;;;0.13;0.13;;;;;;;16.50;93.87;97663.31;5066802;28;20044;-68
2023/09/02 02:17:57;;;;;;;0.10;0.10;;;;;;;16.53;93.94;97660.97;5069773;28;20068;-68
2023/09/02 02:20:36;;;;;;;0.10;0.10;;;;;;;16.56;93.95;97664.25;5065314;28;20049;-68
2023/09/02 02:23:05;;;;;;;0.13;0.13;;;;;;;16.55;93.61;97657.22;5065692;28;20124;-67
2023/09/02 02:25:33;;;;;;;0.13;0.13;;;;;;;16.56;93.60;97664.25;5067620;28;20041;-67
2023/09/02 02:28:04;;;;;;;0.22;0.22;;;;;;;16.56;93.71;97667.78;5072179;28;20036;-67
2023/09/02 02:30:33;;;;;;;0.32;0.32;;;;;;;16.52;93.81;97664.72;5071145;28;20139;-67
2023/09/02 02:33:01;;;;;;;0.13;0.13;;;;;;;16.52;93.70;97667.41;5072795;28;20048;-67
2023/09/02 02:35:31;;;;;;;0.20;0.20;;;;;;;16.53;93.72;97666.38;5066610;28;20553;-67
2023/09/02 02:37:59;;;;;;;0.13;0.13;;;;;;;16.53;93.45;97671.75;5067249;28;20193;-67
2023/09/02 02:40:27;;;;;;;0.10;0.10;;;;;;;16.49;93.86;97667.06;5062022;28;20128;-66
2023/09/02 02:42:55;;;;;;;0.10;0.10;;;;;;;16.49;93.78;97657.13;5071231;28;20044;-67
2023/09/02 02:45:23;;;;;;;0.10;0.10;;;;;;;16.52;93.75;97659.31;5064440;28;20043;-67
2023/09/02 02:47:51;;;;;;;0.10;0.10;;;;;;;16.52;93.74;97648.53;5067338;28;20139;-66
2023/09/02 02:50:20;;;;;;;0.10;0.10;;;;;;;16.48;93.54;97654.66;5063763;28;20037;-66
2023/09/02 02:52:49;;;;;;;0.20;0.20;;;;;;;16.40;94.12;97661.16;5061288;28;20056;-66
2023/09/02 02:55:17;;;;;;;0.10;0.10;;;;;;;16.47;93.94;97667.28;5070077;28;20056;-67
2023/09/02 02:57:46;;;;;;;0.20;0.20;;;;;;;16.46;93.39;97671.03;5067985;28;20423;-67
2023/09/02 03:00:14;;;;;;;0.20;0.20;;;;;;;16.46;93.30;97668.34;5069803;28;20047;-67
2023/09/02 03:02:42;;;;;;;0.10;0.10;;;;;;;16.42;93.57;97669.84;5069647;28;20049;-67
2023/09/02 03:05:11;;;;;;;0.15;0.15;;;;;;;16.35;93.83;97677.22;5063887;28;20048;-67
2023/09/02 03:07:39;;;;;;;0.20;0.20;;;;;;;16.35;93.81;97677.22;5068149;28;20124;-67
2023/09/02 03:10:08;;;;;;;0.10;0.10;;;;;;;16.35;94.32;97684.47;5071458;28;20063;-67
2023/09/02 03:12:36;;;;;;;0.03;0.03;;;;;;;16.34;94.45;97680.13;5066416;28;20048;-67
2023/09/02 03:15:07;;;;;;;0.13;0.13;;;;;;;16.45;93.79;97692.81;5058039;28;20130;-66
2023/09/02 03:17:36;;;;;;;0.10;0.10;;;;;;;16.36;94.05;97695.03;5063495;28;20036;-67
2023/09/02 03:20:06;;;;;;;0.10;0.10;;;;;;;16.27;94.72;97691.00;5065895;28;20045;-67
2023/09/02 03:22:36;;;;;;;0.10;0.10;;;;;;;16.21;95.30;97693.78;5066251;28;20139;-67
2023/09/02 03:25:05;;;;;;;0.15;0.15;;;;;;;16.29;94.94;97688.91;5068017;28;20130;-67
2023/09/02 03:27:32;;;;;;;0.13;0.13;;;;;;;16.42;93.88;97693.28;5070362;28;20488;-67
2023/09/02 03:30:00;;;;;;;0.13;0.13;;;;;;;16.46;93.59;97691.78;5064152;28;20082;-68
2023/09/02 03:32:30;;;;;;;0.20;0.20;;;;;;;16.38;94.15;97694.78;5060744;28;20037;-66
2023/09/02 03:34:58;;;;;;;0.10;0.10;;;;;;;16.20;95.03;97694.81;5063883;28;20439;-66
2023/09/02 03:37:27;;;;;;;0.28;0.28;;;;;;;16.19;95.39;97691.34;5063711;28;20039;-68
2023/09/02 03:39:57;;;;;;;0.20;0.20;;;;;;;16.27;94.91;97691.00;5066460;28;20102;-67
2023/09/02 03:42:24;;;;;;;0.10;0.10;;;;;;;16.28;94.92;97692.66;5068424;28;20044;-67
2023/09/02 03:44:52;;;;;;;0.20;0.20;;;;;;;16.19;95.45;97702.09;5064036;28;20166;-67
2023/09/02 03:47:20;;;;;;;0.13;0.13;;;;;;;16.24;95.53;97706.78;5067484;28;20041;-67
2023/09/02 03:49:50;;;;;;;0.22;0.22;;;;;;;16.28;95.32;97699.91;5070879;28;20045;-67
2023/09/02 03:52:18;;;;;;;0.25;0.25;;;;;;;16.30;95.12;97701.31;5074126;28;20051;-67
2023/09/02 03:54:46;;;;;;;0.20;0.20;;;;;;;16.34;94.89;97697.13;5075653;28;20052;-67
2023/09/02 03:57:16;;;;;;;0.20;0.20;;;;;;;16.34;95.06;97705.19;5065908;28;20090;-67
2023/09/02 03:59:43;;;;;;;0.10;0.10;;;;;;;16.38;94.78;97702.88;5072276;28;20279;-68
2023/09/02 04:02:11;;;;;;;0.13;0.13;;;;;;;16.46;93.85;97714.16;5064361;28;20549;-67
2023/09/02 04:04:39;;;;;;;0.03;0.03;;;;;;;16.40;94.19;97712.34;5061797;28;20399;-69
2023/09/02 04:07:06;;;;;;;0.10;0.10;;;;;;;16.32;94.01;97718.06;5071211;28;20106;-67
2023/09/02 04:09:34;;;;;;;0.13;0.13;;;;;;;16.25;94.81;97721.91;5066664;28;20055;-67
2023/09/02 04:12:03;;;;;;;0.20;0.20;;;;;;;16.19;95.10;97720.13;5084432;28;20048;-68
2023/09/02 04:14:32;;;;;;;0.20;0.20;;;;;;;16.14;95.26;97724.31;5068722;28;20530;-67
2023/09/02 04:17:00;;;;;;;0.13;0.13;;;;;;;16.10;95.50;97730.38;5061937;28;20049;-67
2023/09/02 04:19:28;;;;;;;0.13;0.13;;;;;;;16.10;95.78;97731.19;5064712;28;20123;-68
2023/09/02 04:21:56;;;;;;;0.13;0.13;;;;;;;16.08;95.80;97735.19;5057625;28;20094;-67
2023/09/02 04:24:23;;;;;;;0.25;0.25;;;;;;;16.07;96.11;97731.66;5064994;28;20047;-66
2023/09/02 04:26:52;;;;;;;0.13;0.13;;;;;;;16.15;96.05;97730.53;5061044;28;20510;-67
2023/09/02 04:29:19;;;;;;;0.13;0.13;;;;;;;16.18;95.99;97723.88;5068910;28;20127;-66
2023/09/02 04:31:49;;;;;;;0.00;0.00;;;;;;;16.21;95.84;97732.31;5060002;28;20385;-67
2023/09/02 04:34:19;;;;;;;0.03;0.03;;;;;;;16.25;95.58;97732.69;5059765;28;20044;-66
2023/09/02 04:36:50;;;;;;;0.20;0.20;;;;;;;16.29;95.64;97732.00;5058455;28;20056;-66
2023/09/02 04:39:18;;;;;;;0.13;0.13;;;;;;;16.31;95.58;97735.28;5062586;28;20044;-66
2023/09/02 04:41:47;;;;;;;0.00;0.00;;;;;;;16.31;95.32;97743.34;5069674;28;20384;-66
2023/09/02 04:44:16;;;;;;;0.20;0.20;;;;;;;16.34;95.16;97742.91;5057738;28;20080;-67
2023/09/02 04:46:44;;;;;;;0.22;0.22;;;;;;;16.31;95.12;97756.81;5057658;28;20044;-66
2023/09/02 04:49:14;;;;;;;0.13;0.13;;;;;;;16.32;95.02;97753.09;5070713;28;20462;-67
2023/09/02 04:51:42;;;;;;;0.13;0.13;;;;;;;16.28;95.14;97751.91;5069466;28;20044;-69
2023/09/02 04:54:09;;;;;;;0.10;0.10;;;;;;;16.27;95.30;97754.84;5067464;28;20040;-68
2023/09/02 04:56:38;;;;;;;0.22;0.22;;;;;;;16.31;95.13;97759.53;5069365;28;20131;-69
2023/09/02 04:59:05;;;;;;;0.13;0.13;;;;;;;16.32;94.75;97768.44;5068908;28;20119;-69
2023/09/02 05:01:34;;;;;;;0.20;0.20;;;;;;;16.31;94.72;97770.28;5063156;28;20102;-68
2023/09/02 05:04:02;;;;;;;0.10;0.10;;;;;;;16.30;94.80;97765.97;5063290;28;20048;-69
2023/09/02 05:06:31;;;;;;;0.20;0.20;;;;;;;16.25;95.35;97773.91;5058234;28;20045;-70
2023/09/02 05:08:58;;;;;;;0.13;0.13;;;;;;;16.31;95.45;97772.16;5059217;28;20159;-69
2023/09/02 05:11:31;;;;;;;0.13;0.13;;;;;;;16.33;95.22;97776.28;5069079;28;20109;-69
2023/09/02 05:14:00;;;;;;;0.20;0.20;;;;;;;16.34;94.92;97775.25;5064834;28;20091;-70
2023/09/02 05:16:28;;;;;;;0.20;0.20;;;;;;;16.33;95.21;97770.06;5065179;28;20230;-69
2023/09/02 05:18:55;;;;;;;0.03;0.03;;;;;;;16.28;95.24;97776.16;5064192;28;20094;-69
2023/09/02 05:21:23;;;;;;;0.13;0.13;;;;;;;16.30;94.76;97765.97;5055846;28;20033;-69
2023/09/02 05:23:53;;;;;;;0.03;0.03;;;;;;;16.31;95.08;97778.38;5073103;28;20099;-69
2023/09/02 05:26:22;;;;;;;0.20;0.20;;;;;;;16.34;95.02;97783.31;5067831;28;20438;-69
2023/09/02 05:28:49;;;;;;;0.20;0.20;;;;;;;16.32;94.73;97780.03;5057173;28;20043;-69
2023/09/02 05:31:17;;;;;;;0.10;0.10;;;;;;;16.29;94.79;97783.19;5082687;28;20161;-69
2023/09/02 05:33:46;;;;;;;0.15;0.15;;;;;;;16.35;94.74;97778.75;5056643;28;20132;-69
2023/09/02 05:36:13;;;;;;;0.17;0.17;;;;;;;16.25;95.27;97786.56;5059126;28;20044;-69
2023/09/02 05:38:41;;;;;;;0.10;0.10;;;;;;;16.22;95.53;97787.81;5059548;28;20533;-69
2023/09/02 05:41:10;;;;;;;0.15;0.15;;;;;;;16.18;95.71;97786.66;5060797;28;20044;-67
2023/09/02 05:43:37;;;;;;;0.20;0.20;;;;;;;16.21;95.50;97796.94;5062765;28;20080;-69
2023/09/02 05:46:05;;;;;;;0.10;0.10;;;;;;;16.14;95.58;97799.72;5062856;28;20370;-69
2023/09/02 05:48:34;;;;;;;0.13;0.13;;;;;;;16.11;95.86;97797.47;5058840;28;20040;-69
2023/09/02 05:51:01;;;;;;;0.13;0.13;;;;;;;16.14;95.53;97798.91;5054834;28;20048;-69
2023/09/02 05:53:29;;;;;;;0.13;0.13;;;;;;;16.15;95.50;97800.56;5060072;28;20044;-70
2023/09/02 05:55:57;;;;;;;0.13;0.13;;;;;;;16.16;95.53;97810.28;5061682;28;20495;-69
2023/09/02 05:58:26;;;;;;;0.10;0.10;;;;;;;16.13;95.80;97810.72;5060472;28;20448;-69
2023/09/02 06:00:54;;;;;;;0.00;0.00;;;;;;;16.13;96.50;97806.16;5067248;28;20442;-70
2023/09/02 06:03:22;;;;;;;0.10;0.10;;;;;;;16.22;96.41;97812.06;5060152;28;20044;-67
2023/09/02 06:05:50;;;;;;;0.10;0.10;;;;;;;16.29;95.90;97815.53;5052921;28;20573;-68
2023/09/02 06:08:18;;;;;;;0.13;0.13;;;;;;;16.34;95.63;97818.34;5063024;28;20051;-67
2023/09/02 06:10:56;;;;;;;0.20;0.20;;;;;;;16.26;93.39;97820.53;5055039;28;20044;-68
2023/09/02 06:13:24;;;;;;;0.10;0.10;;;;;;;16.24;92.33;97818.06;5053845;28;20489;-68
2023/09/02 06:15:57;;;;;;;0.17;0.17;;;;;;;16.26;92.58;97815.13;5060187;28;20408;-70
2023/09/02 06:18:24;;;;;;;0.10;0.10;;;;;;;16.18;91.59;97812.75;5079789;28;20447;-69
2023/09/02 06:20:52;;;;;;;0.10;0.10;;;;;;;16.08;91.51;97821.34;5066679;28;20096;-68
2023/09/02 06:23:20;;;;;;;0.10;0.10;;;;;;;16.07;91.85;97825.09;5070204;28;20053;-67
2023/09/02 06:25:55;;;;;;;0.10;0.10;;;;;;;16.10;91.98;97825.44;5070948;28;20520;-68
2023/09/02 06:28:24;;;;;;;0.15;0.15;;;;;;;16.15;91.99;97825.63;5062524;28;20045;-69
2023/09/02 06:30:53;;;;;;;0.13;0.13;;;;;;;16.15;91.59;97827.47;5059497;28;20131;-69
2023/09/02 06:33:22;;;;;;;0.15;0.15;;;;;;;16.19;91.68;97830.56;5064072;28;20419;-68
2023/09/02 06:35:50;;;;;;;0.20;0.20;;;;;;;16.19;91.70;97834.09;5056848;28;20048;-68
2023/09/02 06:38:18;;;;;;;0.08;0.08;;;;;;;16.19;91.45;97825.19;5066458;28;20068;-68
2023/09/02 06:40:46;;;;;;;0.13;0.13;;;;;;;16.22;91.14;97830.91;5081757;28;20424;-68
2023/09/02 06:43:13;;;;;;;0.15;0.15;;;;;;;16.21;90.88;97831.97;5062814;28;20040;-69
2023/09/02 06:45:41;;;;;;;0.10;0.10;;;;;;;16.19;91.56;97842.16;5063720;28;20033;-68
2023/09/02 06:48:10;;;;;;;0.15;0.15;;;;;;;16.26;91.89;97839.38;5080277;28;20102;-68
2023/09/02 06:50:38;;;;;;;0.20;0.20;;;;;;;16.34;91.96;97841.75;5067708;28;20480;-68
2023/09/02 06:53:05;;;;;;;0.22;0.22;;;;;;;16.33;91.75;97840.94;5069767;28;20139;-68
2023/09/02 06:55:33;;;;;;;0.13;0.13;;;;;;;16.37;91.95;97842.16;5062166;28;20062;-71
2023/09/02 06:58:01;;;;;;;0.13;0.13;;;;;;;16.36;91.95;97848.59;5062033;28;20051;-68
2023/09/02 07:00:29;;;;;;;0.10;0.10;;;;;;;16.38;91.79;97845.66;5066412;28;20050;-68
2023/09/02 07:02:56;;;;;;;0.13;0.13;;;;;;;16.38;92.07;97849.19;5064140;28;20146;-68
2023/09/02 07:05:26;;;;;;;0.20;0.20;;;;;;;16.40;92.41;97852.44;5069276;28;20116;-68
2023/09/02 07:07:53;;;;;;;0.20;0.20;;;;;;;16.42;92.17;97854.94;5065504;28;20055;-68
2023/09/02 07:10:21;;;;;;;0.10;0.10;;;;;;;16.44;92.42;97861.75;5058740;28;20392;-69
2023/09/02 07:12:52;;;;;;;0.10;0.10;;;;;;;16.46;92.08;97861.53;5062597;28;20083;-68
2023/09/02 07:15:20;;;;;;;0.15;0.15;;;;;;;16.46;91.86;97864.22;5064068;28;20056;-69
2023/09/02 07:17:47;;;;;;;0.03;0.03;;;;;;;16.46;91.37;97873.13;5070704;28;20103;-69
2023/09/02 07:20:15;;;;;;;0.10;0.10;;;;;;;16.49;91.69;97866.47;5070815;28;20040;-68
2023/09/02 07:22:44;;;;;;;0.20;0.20;;;;;;;16.51;91.18;97865.19;5056590;28;20063;-68
2023/09/02 07:25:12;;;;;;;0.08;0.08;;;;;;;16.55;91.24;97878.22;5065202;28;20488;-69
2023/09/02 07:27:39;;;;;;;0.13;0.13;;;;;;;16.57;91.26;97873.41;5063367;28;20048;-68
2023/09/02 07:30:08;;;;;;;0.13;0.13;;;;;;;16.55;90.85;97878.22;5061776;28;20561;-68
2023/09/02 07:32:36;;;;;;;0.20;0.20;;;;;;;16.59;91.09;97876.72;5071846;28;20040;-68
2023/09/02 07:35:04;;;;;;;0.20;0.20;;;;;;;16.54;90.53;97880.06;5072255;28;20036;-70
2023/09/02 07:37:32;;;;;;;0.22;0.22;;;;;;;16.50;89.96;97885.13;5068728;28;20071;-69
2023/09/02 07:40:01;;;;;;;0.13;0.13;;;;;;;16.60;90.47;97891.84;5068403;28;20063;-67
2023/09/02 07:42:29;;;;;;;0.20;0.20;;;;;;;16.66;90.21;97891.78;5070950;28;20045;-69
2023/09/02 07:44:56;;;;;;;0.03;0.03;;;;;;;16.73;90.11;97897.09;5078142;28;20048;-69
2023/09/02 07:47:24;;;;;;;0.13;0.13;;;;;;;16.75;90.08;97903.91;5071569;28;20127;-71
2023/09/02 07:49:56;;;;;;;0.03;0.03;;;;;;;16.55;90.40;97907.84;5068145;28;20481;-69
2023/09/02 07:52:24;;;;;;;0.22;0.22;;;;;;;16.68;90.12;97900.47;5057775;28;20051;-70
2023/09/02 07:54:51;;;;;;;0.10;0.10;;;;;;;16.77;89.66;97912.59;5071315;28;20135;-68
2023/09/02 07:57:20;;;;;;;0.13;0.13;;;;;;;16.84;89.71;97909.81;5072365;28;20177;-68
2023/09/02 07:59:48;;;;;;;0.22;0.22;;;;;;;16.82;90.08;97923.50;5065900;28;20048;-69
2023/09/02 08:02:16;;;;;;;0.25;0.25;;;;;;;16.87;90.20;97928.25;5065370;28;20082;-70
2023/09/02 08:04:43;;;;;;;0.20;0.20;;;;;;;16.96;90.36;97928.75;5071019;28;20063;-70
2023/09/02 08:07:11;;;;;;;0.40;0.40;;;;;;;17.03;89.43;97927.59;5057617;28;24047;-70
2023/09/02 08:09:39;;;;;;;0.20;0.20;;;;;;;17.08;89.11;97933.16;5065904;28;20055;-71
2023/09/02 08:12:07;;;;;;;0.20;0.20;;;;;;;17.11;88.86;97934.59;5067603;28;20049;-71
2023/09/02 08:14:36;;;;;;;0.13;0.13;;;;;;;17.04;88.56;97928.44;5068054;28;20052;-71
2023/09/02 08:17:04;;;;;;;0.20;0.20;;;;;;;17.15;88.47;97935.75;5058954;28;20037;-71
2023/09/02 08:19:32;;;;;;;0.10;0.10;;;;;;;17.29;88.68;97941.81;5062187;28;20047;-70
2023/09/02 08:21:59;;;;;;;0.13;0.13;;;;;;;17.37;87.88;97945.00;5066616;28;20124;-71
2023/09/02 08:24:27;;;;;;;0.22;0.22;;;;;;;17.38;86.50;97941.25;5064729;28;20045;-71
2023/09/02 08:26:55;;;;;;;0.10;0.10;;;;;;;17.45;87.18;97941.16;5070054;28;20055;-71
2023/09/02 08:29:22;;;;;;;0.10;0.10;;;;;;;17.47;86.36;97956.06;5065312;28;20519;-70
2023/09/02 08:31:54;;;;;;;0.10;0.10;;;;;;;17.48;86.42;97952.31;5067007;28;20033;-71
2023/09/02 08:34:21;;;;;;;0.00;0.00;;;;;;;17.60;85.80;97949.66;5063703;28;20071;-70
2023/09/02 08:36:49;;;;;;;0.13;0.13;;;;;;;17.72;86.23;97961.34;5066528;28;20068;-70
2023/09/02 08:39:17;;;;;;;0.13;0.13;;;;;;;17.80;86.16;97957.47;5072602;28;20044;-70
2023/09/02 08:41:45;;;;;;;0.20;0.20;;;;;;;17.86;85.78;97960.06;5065199;28;20120;-70
2023/09/02 08:44:16;;;;;;;0.10;0.10;;;;;;;17.87;85.45;97953.59;5064529;28;20048;-70
2023/09/02 08:46:46;;;;;;;0.17;0.17;;;;;;;17.83;86.38;97957.84;5056507;28;20068;-71
2023/09/02 08:49:17;;;;;;;0.17;0.17;;;;;;;17.90;85.77;97958.56;5065693;28;20547;-71
2023/09/02 08:51:44;;;;;;;0.15;0.15;;;;;;;18.01;85.15;97962.34;5064794;28;20045;-72
2023/09/02 08:54:13;;;;;;;0.30;0.30;;;;;;;18.10;84.31;97960.09;5065657;28;20051;-71
2023/09/02 08:56:41;;;;;;;0.13;0.13;;;;;;;18.18;83.63;97957.06;5061519;28;20493;-71
2023/09/02 08:59:10;;;;;;;0.20;0.20;;;;;;;18.26;82.67;97967.53;5067069;28;20040;-70
2023/09/02 09:01:42;;;;;;;0.10;0.10;;;;;;;18.20;81.99;97963.06;5071548;28;20043;-70
2023/09/02 09:04:10;;;;;;;;;;;;;;;18.30;83.18;97963.28;5068723;28;20040;-71
2023/09/02 09:06:39;;;;;;;0.10;0.10;;;;;;;18.30;82.83;97964.13;5062504;28;19929;-70
2023/09/02 09:09:08;;;;;;;0.20;0.20;;;;;;;18.40;82.98;97960.00;5064464;28;20095;-71
2023/09/02 09:11:37;;;;;;;0.00;0.00;;;;;;;18.41;82.48;97962.47;5052627;28;20460;-71
2023/09/02 09:14:06;;;;;;;0.13;0.13;;;;;;;18.28;81.26;97974.31;5064801;28;20044;-72
2023/09/02 09:16:38;;;;;;;0.13;0.13;;;;;;;18.38;81.87;97976.44;5061450;28;20037;-71
2023/09/02 09:19:05;;;;;;;0.20;0.20;;;;;;;18.45;81.72;97979.06;5066386;28;20054;-71
2023/09/02 09:21:37;;;;;;;0.13;0.13;;;;;;;18.47;80.84;97987.75;5065362;28;20045;-70
2023/09/02 09:24:11;;;;;;;0.05;0.05;;;;;;;18.47;80.38;97995.88;5061597;28;20045;-70
2023/09/02 09:26:39;;;;;;;0.10;0.10;;;;;;;18.58;81.59;97997.78;5060219;28;20051;-71
2023/09/02 09:29:11;;;;;;;0.17;0.17;;;;;;;18.68;80.32;98008.81;5071199;28;20044;-70
2023/09/02 09:31:39;;;;;;;0.03;0.03;;;;;;;18.63;79.14;98001.41;5062433;28;20043;-71
2023/09/02 09:34:07;;;;;;;0.20;0.20;;;;;;;18.71;79.13;98005.63;5062084;28;20040;-70
2023/09/02 09:36:37;;;;;;;0.13;0.13;;;;;;;18.77;78.94;98004.69;5062334;28;20048;-70
2023/09/02 09:39:07;;;;;;;0.10;0.10;;;;;;;18.64;79.42;98000.34;5067782;28;20071;-69
2023/09/02 09:41:36;;;;;;;0.03;0.03;;;;;;;18.60;77.77;98012.69;5067017;28;20086;-69
2023/09/02 09:44:05;;;;;;;0.13;0.13;;;;;;;18.47;77.75;98010.22;5070275;28;20098;-70
2023/09/02 09:46:34;;;;;;;0.13;0.13;;;;;;;18.60;77.08;98014.56;5067604;28;20051;-70
2023/09/02 09:49:03;;;;;;;0.10;0.10;;;;;;;18.78;76.99;98019.88;5057938;28;20111;-70
2023/09/02 09:51:31;;;;;;;0.10;0.10;;;;;;;18.92;77.42;98017.72;5069290;28;20044;-71
2023/09/02 09:53:58;;;;;;;0.20;0.20;;;;;;;19.04;77.31;98023.94;5062911;28;20114;-71
2023/09/02 09:56:27;;;;;;;0.10;0.10;;;;;;;19.00;75.15;98020.88;5060845;28;20073;-71
2023/09/02 09:58:56;;;;;;;0.10;0.10;;;;;;;18.76;76.83;98026.56;5067999;28;20045;-70
2023/09/02 10:01:24;;;;;;;0.10;0.10;;;;;;;19.18;76.33;98028.03;5069050;28;20549;-70
2023/09/02 10:03:55;;;;;;;0.05;0.05;;;;;;;19.36;74.29;98033.28;5068058;28;20052;-70
2023/09/02 10:06:23;;;;;;;0.10;0.10;;;;;;;19.54;72.84;98029.59;5070043;28;20045;-70
2023/09/02 10:08:52;;;;;;;0.03;0.03;;;;;;;19.41;72.40;98027.97;5067134;28;20076;-70
2023/09/02 10:11:24;;;;;;;0.10;0.10;;;;;;;19.57;72.40;98042.66;5062780;28;20048;-72
2023/09/02 10:13:54;;;;;;;0.10;0.10;;;;;;;19.68;71.09;98035.56;5070261;28;20040;-71
2023/09/02 10:16:24;;;;;;;0.13;0.13;;;;;;;19.72;71.49;98036.72;5069066;28;20050;-70
2023/09/02 10:18:52;;;;;;;0.20;0.20;;;;;;;19.78;72.19;98039.28;5069327;28;20091;-69
2023/09/02 10:21:21;;;;;;;0.15;0.15;;;;;;;19.87;72.59;98044.31;5073286;28;20086;-70
2023/09/02 10:23:50;;;;;;;0.13;0.13;;;;;;;20.01;71.87;98040.25;5069174;28;20041;-70
2023/09/02 10:26:25;;;;;;;0.10;0.10;;;;;;;20.00;71.34;98042.13;5063374;28;20049;-72
2023/09/02 10:28:58;;;;;;;0.03;0.03;;;;;;;19.78;71.70;98038.47;5074234;28;20053;-71
2023/09/02 10:31:29;;;;;;;0.28;0.28;;;;;;;19.98;70.84;98043.44;5064116;28;20412;-71
2023/09/02 10:34:05;;;;;;;0.10;0.10;;;;;;;20.06;69.66;98037.59;5070018;28;20068;-71
2023/09/02 10:36:33;;;;;;;0.13;0.13;;;;;;;20.04;69.96;98043.25;5061535;28;20051;-71
2023/09/02 10:39:04;;;;;;;0.03;0.03;;;;;;;20.25;69.64;98043.63;5070641;28;20098;-70
2023/09/02 10:41:32;;;;;;;0.03;0.03;;;;;;;20.33;68.17;98043.22;5059752;28;20041;-70
2023/09/02 10:44:04;;;;;;;0.03;0.03;;;;;;;20.34;67.67;98043.00;5068184;28;20045;-71
2023/09/02 10:46:32;;;;;;;0.10;0.10;;;;;;;20.32;68.17;98037.00;5065024;28;20068;-72
2023/09/02 10:49:00;;;;;;;0.13;0.13;;;;;;;20.57;68.07;98030.34;5066789;28;20048;-70
2023/09/02 10:51:27;;;;;;;0.10;0.10;;;;;;;20.76;66.85;98035.28;5069306;28;20045;-72
2023/09/02 10:54:00;;;;;;;0.10;0.10;;;;;;;20.99;66.02;98022.53;5073870;28;20062;-72
2023/09/02 10:56:30;;;;;;;0.10;0.10;;;;;;;21.00;64.23;98030.44;5071606;28;20068;-71
2023/09/02 10:58:58;;;;;;;0.00;0.00;;;;;;;21.03;64.50;98027.22;5065598;28;20472;-69
2023/09/02 11:01:42;;;;;;;0.10;0.10;;;;;;;20.92;63.94;98021.91;5063705;28;20033;-72
2023/09/02 11:04:10;;;;;;;0.10;0.10;;;;;;;20.95;62.23;98029.56;5068032;28;20044;-71
2023/09/02 11:06:37;;;;;;;0.08;0.08;;;;;;;21.08;63.44;98031.88;5066447;28;20041;-72
2023/09/02 11:09:05;;;;;;;0.03;0.03;;;;;;;21.02;61.23;98036.44;5067777;28;20045;-72
2023/09/02 11:12:06;;;;;;;0.10;0.10;;;;;;;20.97;62.13;98035.56;5066036;28;20395;-71
2023/09/02 11:14:34;;;;;;;0.10;0.10;;;;;;;21.35;61.54;98040.16;5069438;28;20040;-71
2023/09/02 11:17:28;;;;;;;0.08;0.08;;;;;;;21.21;59.73;98034.28;5065882;28;20123;-71
2023/09/02 11:20:00;;;;;;;0.10;0.10;;;;;;;21.67;57.82;98034.84;5071530;28;20092;-71
2023/09/02 11:22:50;;;;;;;0.10;0.10;;;;;;;22.20;57.32;98037.59;5064604;28;20036;-71
2023/09/02 11:25:32;;;;;;;0.03;0.03;;;;;;;22.42;55.31;98044.84;5067118;28;20507;-70
2023/09/02 11:28:01;;;;;;;0.10;0.10;;;;;;;22.23;56.15;98033.50;5060622;28;20072;-71
2023/09/02 11:30:30;;;;;;;0.03;0.03;;;;;;;21.97;55.40;98041.41;5073454;28;20040;-71
2023/09/02 11:33:00;;;;;;;0.03;0.03;;;;;;;22.25;55.79;98036.81;5072810;28;20059;-71
2023/09/02 11:35:29;;;;;;;0.13;0.13;;;;;;;22.14;56.18;98048.66;5069746;28;20512;-71
2023/09/02 11:37:57;;;;;;;0.10;0.10;;;;;;;22.54;54.89;98048.19;5068186;28;20044;-71
2023/09/02 11:40:26;;;;;;;0.10;0.10;;;;;;;22.86;54.24;98051.72;5065680;28;20484;-70
2023/09/02 11:42:55;;;;;;;0.03;0.03;;;;;;;22.79;53.49;98056.59;5064262;28;20110;-70